Ballincollig, Ireland
Current Conditions -  °F | °C
As of 12:30 PM on Thursday 23 Oct 2014 (Local Time) from EICK Reporting Station
Broken Clouds Broken Clouds  
Wind Chill: 15°   Ceiling: 900
Heat Index: 15°   Visibility: 6mi
Dew Point: 14°   Wind: 18mph
Humidity: 94%   Direction: 230°SW
Pressure: 29.94"   Gusts: 31mph
Location:  51.89°N, 8.59°W
Report Text: EICK 231230Z 23016G27KT 9999 BKN009 SCT019 BKN030 15/14 Q1014 TEMPO 4000 BKN005
Loading
Personal Weather Stations






























Interactive Weather Map
Tropical Storm Tracking
New forecast layout! Learn more

10-Day Weather Forecast

Advertisements
Track Severe Weather on mobile